Time;durP1;ratioP1;P1;durP2;ratioP2;P2;SDS_P1;SDS_P2;PMS_P1;PMS_P2;Temp;Humidity;BMP_temperature;BMP_pressure;BME280_temperature;BME280_humidity;BME280_pressure;Samples;Min_cycle;Max_cycle;Signal;HPM_P1;HPM_P2
2022/03/04 00:01:21;;;;;;;65.93;36.50;;;1.80;99.90;;;;;;5034373;28;20029;-54
2022/03/04 00:03:47;;;;;;;63.58;37.10;;;1.90;99.90;;;;;;5016544;28;20112;-48
2022/03/04 00:06:13;;;;;;;63.83;36.40;;;1.80;99.90;;;;;;5000491;28;20045;-50
2022/03/04 00:08:39;;;;;;;65.25;37.80;;;1.90;99.90;;;;;;5034796;28;20038;-52
2022/03/04 00:11:04;;;;;;;69.05;38.60;;;2.00;99.90;;;;;;5034497;28;20382;-54
2022/03/04 00:13:31;;;;;;;64.97;35.65;;;2.00;99.90;;;;;;5034495;28;20029;-54
2022/03/04 00:15:57;;;;;;;65.50;36.20;;;1.90;99.90;;;;;;5034227;28;20076;-54
2022/03/04 00:18:23;;;;;;;70.50;38.05;;;1.90;99.90;;;;;;5034772;28;20363;-51
2022/03/04 00:20:48;;;;;;;67.32;37.88;;;1.90;99.90;;;;;;5035242;28;20033;-55
2022/03/04 00:23:15;;;;;;;72.28;39.08;;;1.80;99.90;;;;;;5034732;28;20123;-51
2022/03/04 00:25:40;;;;;;;66.60;36.15;;;1.70;99.90;;;;;;5034286;28;20041;-57
2022/03/04 00:28:06;;;;;;;66.68;36.90;;;1.70;99.90;;;;;;5034063;28;20155;-54
2022/03/04 00:30:32;;;;;;;72.20;38.75;;;1.70;99.90;;;;;;5033743;28;20026;-54
2022/03/04 00:32:58;;;;;;;88.95;47.00;;;1.80;99.90;;;;;;5033266;28;20025;-53
2022/03/04 00:35:24;;;;;;;87.68;46.38;;;1.70;99.90;;;;;;5033841;28;20033;-54
2022/03/04 00:37:49;;;;;;;68.03;39.30;;;1.70;99.90;;;;;;5034393;28;20079;-53
2022/03/04 00:40:15;;;;;;;72.70;39.42;;;1.80;99.90;;;;;;5033696;28;20572;-56
2022/03/04 00:42:41;;;;;;;71.68;38.17;;;1.70;99.90;;;;;;5015235;28;20063;-53
2022/03/04 00:45:06;;;;;;;72.10;39.17;;;1.70;99.90;;;;;;4996315;28;20496;-54
2022/03/04 00:47:32;;;;;;;73.93;40.72;;;1.70;99.90;;;;;;5014139;28;20045;-52
2022/03/04 00:49:58;;;;;;;79.68;40.97;;;1.80;99.90;;;;;;5014210;28;20033;-56
2022/03/04 00:52:24;;;;;;;79.63;40.83;;;1.90;99.90;;;;;;4996056;28;20026;-54
2022/03/04 00:54:49;;;;;;;70.60;38.53;;;2.00;99.90;;;;;;5014025;28;20022;-56
2022/03/04 00:57:15;;;;;;;72.30;41.03;;;2.00;99.90;;;;;;5013736;28;20041;-56
2022/03/04 00:59:41;;;;;;;78.10;39.85;;;2.00;99.90;;;;;;5016929;28;20413;-50
2022/03/04 01:02:07;;;;;;;79.38;39.13;;;1.90;99.90;;;;;;5018080;28;20033;-52
2022/03/04 01:04:32;;;;;;;81.03;42.17;;;1.80;99.90;;;;;;5013410;28;20113;-51
2022/03/04 01:06:58;;;;;;;81.65;41.33;;;1.80;99.90;;;;;;5013314;28;20042;-52
2022/03/04 01:09:24;;;;;;;83.63;40.95;;;1.70;99.90;;;;;;5013719;28;20034;-50
2022/03/04 01:11:49;;;;;;;82.75;40.83;;;1.60;99.90;;;;;;5013099;28;20030;-53
2022/03/04 01:14:15;;;;;;;84.63;40.45;;;1.60;99.90;;;;;;5012196;28;20433;-56
2022/03/04 01:16:40;;;;;;;80.68;40.63;;;1.60;99.90;;;;;;5014860;28;20108;-55
2022/03/04 01:19:06;;;;;;;80.78;39.55;;;1.60;99.90;;;;;;5014592;28;20034;-54
2022/03/04 01:21:32;;;;;;;78.40;39.97;;;1.70;99.90;;;;;;5015056;28;20033;-55
2022/03/04 01:23:57;;;;;;;82.15;39.75;;;1.80;99.90;;;;;;5018689;28;20068;-54
2022/03/04 01:26:23;;;;;;;79.22;39.05;;;1.80;99.90;;;;;;5032603;28;20083;-54
2022/03/04 01:28:49;;;;;;;76.30;37.75;;;1.80;99.90;;;;;;5033929;28;20076;-53
2022/03/04 01:31:15;;;;;;;77.78;37.83;;;1.90;99.90;;;;;;5034067;28;20444;-52
2022/03/04 01:33:41;;;;;;;73.88;38.00;;;2.00;99.90;;;;;;5034374;28;20036;-55
2022/03/04 01:36:07;;;;;;;74.68;38.00;;;2.10;99.90;;;;;;5033137;28;20069;-54
2022/03/04 01:38:32;;;;;;;68.13;37.03;;;2.10;99.90;;;;;;5033169;28;20060;-56
2022/03/04 01:40:58;;;;;;;70.13;37.25;;;2.20;99.90;;;;;;5029355;28;20080;-54
2022/03/04 01:43:24;;;;;;;71.53;35.17;;;2.10;99.90;;;;;;5013290;28;20557;-55
2022/03/04 01:45:49;;;;;;;68.35;35.42;;;2.10;99.90;;;;;;5011670;28;20072;-54
2022/03/04 01:48:18;;;;;;;76.63;37.80;;;2.10;99.90;;;;;;5013666;28;20030;-56
2022/03/04 01:50:50;;;;;;;73.57;37.90;;;2.10;99.90;;;;;;5013230;28;20029;-51
2022/03/04 01:53:18;;;;;;;71.75;37.03;;;2.10;99.90;;;;;;4995436;28;20180;-55
2022/03/04 01:55:44;;;;;;;71.10;36.95;;;2.10;99.90;;;;;;5013254;28;20030;-55
2022/03/04 01:58:10;;;;;;;70.90;35.33;;;2.10;99.90;;;;;;5012807;28;20506;-52
2022/03/04 02:00:36;;;;;;;71.45;35.85;;;2.00;99.90;;;;;;5029974;28;20044;-54
2022/03/04 02:03:01;;;;;;;67.20;36.63;;;2.00;99.90;;;;;;5032760;28;20025;-53
2022/03/04 02:05:27;;;;;;;73.95;36.03;;;2.10;99.90;;;;;;5032166;28;20025;-50
2022/03/04 02:07:54;;;;;;;70.65;35.92;;;2.10;99.90;;;;;;5033044;28;20064;-56
2022/03/04 02:10:19;;;;;;;70.55;36.95;;;2.20;99.90;;;;;;5015134;28;20037;-53
2022/03/04 02:12:45;;;;;;;67.80;34.83;;;2.20;99.90;;;;;;5032186;28;20038;-52
2022/03/04 02:15:11;;;;;;;69.53;35.97;;;2.30;99.90;;;;;;5032637;28;20132;-53
2022/03/04 02:17:36;;;;;;;71.57;34.80;;;2.20;99.90;;;;;;5032334;28;20457;-55
2022/03/04 02:20:04;;;;;;;68.05;37.33;;;2.20;99.90;;;;;;5032296;28;20446;-50
2022/03/04 02:22:31;;;;;;;75.15;36.10;;;2.10;99.90;;;;;;5032275;28;20030;-54
2022/03/04 02:24:57;;;;;;;77.85;38.70;;;1.90;99.90;;;;;;5032070;28;20033;-50
2022/03/04 02:27:22;;;;;;;70.88;36.33;;;1.70;99.90;;;;;;5014350;28;20377;-51
2022/03/04 02:29:48;;;;;;;74.50;36.63;;;1.80;99.90;;;;;;5037191;28;20641;-54
2022/03/04 02:32:14;;;;;;;76.95;36.33;;;1.80;99.90;;;;;;5037933;28;20064;-55
2022/03/04 02:34:39;;;;;;;70.15;35.35;;;1.80;99.90;;;;;;5037065;28;20056;-54
2022/03/04 02:37:05;;;;;;;74.03;36.88;;;1.70;99.90;;;;;;5021222;28;20089;-55
2022/03/04 02:39:31;;;;;;;82.63;38.65;;;1.40;99.90;;;;;;5037589;28;20049;-49
2022/03/04 02:41:57;;;;;;;80.80;37.13;;;1.50;99.90;;;;;;5026199;28;20029;-54
2022/03/04 02:44:22;;;;;;;76.60;36.22;;;1.50;99.90;;;;;;5019169;28;20038;-53
2022/03/04 02:46:48;;;;;;;77.07;36.78;;;1.50;99.90;;;;;;5019182;28;20029;-52
2022/03/04 02:49:13;;;;;;;71.13;34.03;;;1.30;99.90;;;;;;5018692;28;20030;-55
2022/03/04 02:51:39;;;;;;;77.47;37.17;;;1.30;99.90;;;;;;5019382;28;20047;-54
2022/03/04 02:54:05;;;;;;;72.90;35.58;;;1.30;99.90;;;;;;5018632;28;20490;-53
2022/03/04 02:56:32;;;;;;;72.85;35.25;;;1.40;99.90;;;;;;5017269;28;20065;-49
2022/03/04 02:58:57;;;;;;;79.43;37.25;;;1.30;99.90;;;;;;5019384;28;20142;-52
2022/03/04 03:01:25;;;;;;;75.60;34.63;;;1.30;99.90;;;;;;5035814;28;20061;-55
2022/03/04 03:03:51;;;;;;;74.32;35.75;;;1.40;99.90;;;;;;5035339;28;20033;-54
2022/03/04 03:06:17;;;;;;;71.28;33.60;;;1.40;99.90;;;;;;5018037;28;20091;-52
2022/03/04 03:08:42;;;;;;;69.88;34.85;;;1.50;99.90;;;;;;5035463;28;20034;-56
2022/03/04 03:11:08;;;;;;;71.38;34.38;;;1.50;99.90;;;;;;5035754;28;20037;-52
2022/03/04 03:13:34;;;;;;;76.40;36.10;;;1.50;99.90;;;;;;5034999;28;20481;-53
2022/03/04 03:16:00;;;;;;;71.82;33.58;;;1.50;99.90;;;;;;5035084;28;20017;-53
2022/03/04 03:18:25;;;;;;;72.05;34.47;;;1.60;99.90;;;;;;5034886;28;20025;-53
2022/03/04 03:20:51;;;;;;;69.95;32.55;;;1.50;99.90;;;;;;5035388;28;20044;-48
2022/03/04 03:23:17;;;;;;;73.32;34.60;;;1.50;99.90;;;;;;5034841;28;20389;-52
2022/03/04 03:25:42;;;;;;;74.50;34.13;;;1.50;99.90;;;;;;5035036;28;20087;-49
2022/03/04 03:28:08;;;;;;;80.47;39.10;;;1.50;99.90;;;;;;5017315;28;20049;-52
2022/03/04 03:30:34;;;;;;;68.15;33.22;;;1.60;99.90;;;;;;5034655;28;20041;-50
2022/03/04 03:32:59;;;;;;;73.40;35.72;;;1.60;99.90;;;;;;5034256;28;20033;-50
2022/03/04 03:35:25;;;;;;;68.65;35.50;;;1.70;99.90;;;;;;5034759;28;20413;-54
2022/03/04 03:37:51;;;;;;;71.50;33.63;;;1.70;99.90;;;;;;5034648;28;20040;-49
2022/03/04 03:40:16;;;;;;;81.03;35.10;;;1.50;99.90;;;;;;5034262;28;20033;-51
2022/03/04 03:42:42;;;;;;;79.68;33.78;;;1.50;99.90;;;;;;4999043;28;20030;-52
2022/03/04 03:45:10;;;;;;;77.57;35.15;;;1.50;99.90;;;;;;5015453;28;20030;-53
2022/03/04 03:47:38;;;;;;;74.53;35.45;;;1.50;99.90;;;;;;5015191;28;20484;-49
2022/03/04 03:50:09;;;;;;;75.72;36.22;;;1.60;99.90;;;;;;5015170;28;20478;-51
2022/03/04 03:52:35;;;;;;;70.93;33.60;;;1.40;99.90;;;;;;5015151;28;20034;-48
2022/03/04 03:55:00;;;;;;;79.32;35.50;;;1.40;99.90;;;;;;5015056;28;20126;-51
2022/03/04 03:57:26;;;;;;;73.43;33.88;;;1.40;99.90;;;;;;4997178;28;20022;-51
2022/03/04 03:59:51;;;;;;;77.57;36.80;;;1.30;99.90;;;;;;5025226;28;20075;-49
2022/03/04 04:02:17;;;;;;;69.35;34.35;;;1.10;99.90;;;;;;5016233;28;20076;-51
2022/03/04 04:04:44;;;;;;;74.57;35.45;;;1.20;99.90;;;;;;5034702;28;20038;-52
2022/03/04 04:07:11;;;;;;;72.25;32.67;;;1.20;99.90;;;;;;5034849;28;20415;-53
2022/03/04 04:09:37;;;;;;;68.50;32.35;;;1.30;99.90;;;;;;5035038;28;20030;-54
2022/03/04 04:12:03;;;;;;;71.80;34.67;;;1.50;99.90;;;;;;5035042;28;20053;-54
2022/03/04 04:14:29;;;;;;;77.93;35.65;;;1.40;99.90;;;;;;5035029;28;20473;-52
2022/03/04 04:16:55;;;;;;;68.30;32.83;;;1.30;99.90;;;;;;5034553;28;20041;-51
2022/03/04 04:19:22;;;;;;;78.30;35.30;;;1.20;99.90;;;;;;5033997;28;20026;-51
2022/03/04 04:21:48;;;;;;;73.07;35.30;;;1.20;99.90;;;;;;5034154;28;20034;-53
2022/03/04 04:24:13;;;;;;;74.72;35.60;;;1.30;99.90;;;;;;5034206;28;20160;-52
2022/03/04 04:26:39;;;;;;;72.65;35.80;;;1.40;99.90;;;;;;5034356;28;20077;-52
2022/03/04 04:29:05;;;;;;;73.32;35.22;;;1.40;99.90;;;;;;5017321;28;20059;-52
2022/03/04 04:31:32;;;;;;;74.80;34.83;;;1.50;99.90;;;;;;5012987;28;20056;-53
2022/03/04 04:33:59;;;;;;;77.32;35.20;;;1.50;99.90;;;;;;5013855;28;20033;-50
2022/03/04 04:36:25;;;;;;;70.28;32.90;;;1.60;99.90;;;;;;5013841;28;20040;-50
2022/03/04 04:38:51;;;;;;;72.05;33.00;;;1.60;99.90;;;;;;5014082;28;20053;-49
2022/03/04 04:41:17;;;;;;;72.70;33.20;;;1.60;99.90;;;;;;5014382;28;20548;-51
2022/03/04 04:43:42;;;;;;;72.72;33.42;;;1.60;99.90;;;;;;5013370;28;20478;-54
2022/03/04 04:46:08;;;;;;;68.68;34.20;;;1.40;99.90;;;;;;5012650;28;20026;-54
2022/03/04 04:48:33;;;;;;;71.75;32.90;;;1.50;99.90;;;;;;5020520;28;20041;-53
2022/03/04 04:50:59;;;;;;;69.55;34.75;;;1.50;99.90;;;;;;5011638;28;20567;-52
2022/03/04 04:53:28;;;;;;;69.40;33.40;;;1.60;99.90;;;;;;5013651;28;20048;-50
2022/03/04 04:55:54;;;;;;;74.82;33.42;;;1.50;99.90;;;;;;5012631;28;20034;-50
2022/03/04 04:58:20;;;;;;;68.05;33.45;;;1.60;99.90;;;;;;5013985;28;20169;-50
2022/03/04 05:00:50;;;;;;;70.13;33.55;;;1.50;99.90;;;;;;5031829;28;20112;-48
2022/03/04 05:03:17;;;;;;;68.60;33.65;;;1.30;99.90;;;;;;5033041;28;20099;-54
2022/03/04 05:05:42;;;;;;;73.07;33.30;;;1.30;99.90;;;;;;5033444;28;20030;-51
2022/03/04 05:08:08;;;;;;;62.83;30.67;;;1.40;99.90;;;;;;5033123;28;20155;-50
2022/03/04 05:10:34;;;;;;;73.32;35.55;;;1.60;99.90;;;;;;5033606;28;20056;-50
2022/03/04 05:12:59;;;;;;;68.22;33.70;;;1.60;99.90;;;;;;5032741;28;20172;-52
2022/03/04 05:15:25;;;;;;;69.68;34.67;;;1.60;99.90;;;;;;5033141;28;20460;-54
2022/03/04 05:17:51;;;;;;;74.07;33.80;;;1.40;99.90;;;;;;5032708;28;20040;-56
2022/03/04 05:20:18;;;;;;;79.82;34.97;;;1.30;99.90;;;;;;5033084;28;20718;-54
2022/03/04 05:22:44;;;;;;;73.22;34.75;;;1.30;99.90;;;;;;5032638;28;20034;-52
2022/03/04 05:25:10;;;;;;;72.45;34.05;;;1.50;99.90;;;;;;5033698;28;20079;-52
2022/03/04 05:27:36;;;;;;;70.60;33.67;;;1.60;99.90;;;;;;5026471;28;20037;-56
2022/03/04 05:30:03;;;;;;;73.38;34.38;;;1.50;99.90;;;;;;5013608;28;20041;-53
2022/03/04 05:32:28;;;;;;;72.95;34.75;;;1.60;99.90;;;;;;4995378;28;20129;-51
2022/03/04 05:34:54;;;;;;;72.38;34.92;;;1.60;99.90;;;;;;5013381;28;20116;-55
2022/03/04 05:37:19;;;;;;;72.40;34.55;;;1.60;99.90;;;;;;5013324;28;20022;-53
2022/03/04 05:39:45;;;;;;;71.35;33.15;;;1.80;99.90;;;;;;5013871;28;20481;-54
2022/03/04 05:42:11;;;;;;;76.05;34.30;;;1.80;99.90;;;;;;5012540;28;20040;-50
2022/03/04 05:44:37;;;;;;;73.82;33.03;;;1.70;99.90;;;;;;4995780;28;20038;-52
2022/03/04 05:47:03;;;;;;;70.68;34.83;;;1.70;99.90;;;;;;5013017;28;20029;-53
2022/03/04 05:49:28;;;;;;;67.80;33.50;;;1.70;99.90;;;;;;5013372;28;20046;-51
2022/03/04 05:51:54;;;;;;;70.57;32.95;;;1.60;99.90;;;;;;5013769;28;20034;-54
2022/03/04 05:54:19;;;;;;;70.32;35.10;;;1.50;99.90;;;;;;5020312;28;20038;-51
2022/03/04 05:56:45;;;;;;;71.00;33.85;;;1.30;99.90;;;;;;5022307;28;20030;-54
2022/03/04 05:59:11;;;;;;;77.65;34.88;;;1.40;99.90;;;;;;5027142;28;20090;-55
2022/03/04 06:01:36;;;;;;;76.20;33.10;;;1.40;99.90;;;;;;5041369;28;20037;-53
2022/03/04 06:04:02;;;;;;;68.03;32.83;;;1.50;99.90;;;;;;5037665;28;20036;-49
2022/03/04 06:06:28;;;;;;;72.65;34.72;;;1.50;99.90;;;;;;5033001;28;20038;-49
2022/03/04 06:08:54;;;;;;;69.55;32.85;;;1.60;99.90;;;;;;5032519;28;20029;-53
2022/03/04 06:11:20;;;;;;;77.35;35.22;;;1.60;99.90;;;;;;5033472;28;20033;-50
2022/03/04 06:13:45;;;;;;;74.70;34.72;;;1.70;99.90;;;;;;5033242;28;20474;-52
2022/03/04 06:16:11;;;;;;;71.10;33.83;;;1.80;99.90;;;;;;5032559;28;20366;-53
2022/03/04 06:18:37;;;;;;;77.13;37.15;;;1.70;99.90;;;;;;5032059;28;20025;-52
2022/03/04 06:21:03;;;;;;;72.20;35.42;;;1.60;99.90;;;;;;5032143;28;20245;-49
2022/03/04 06:23:29;;;;;;;74.47;33.92;;;1.60;99.90;;;;;;5032303;28;20037;-51
2022/03/04 06:25:55;;;;;;;68.45;34.35;;;1.60;99.90;;;;;;5032654;28;20108;-54
2022/03/04 06:28:21;;;;;;;74.28;34.30;;;1.60;99.90;;;;;;5032575;28;20068;-49
2022/03/04 06:30:47;;;;;;;73.13;35.15;;;1.60;99.90;;;;;;5032175;28;20549;-49
2022/03/04 06:33:30;;;;;;;82.30;37.10;;;1.60;99.90;;;;;;5014431;28;20389;-51
2022/03/04 06:36:00;;;;;;;74.20;32.88;;;1.50;99.90;;;;;;5016881;28;20042;-53
2022/03/04 06:38:26;;;;;;;68.35;33.92;;;1.60;99.90;;;;;;5032358;28;20485;-52
2022/03/04 06:40:52;;;;;;;68.80;32.03;;;1.50;99.90;;;;;;5029097;28;20030;-53
2022/03/04 06:43:19;;;;;;;69.80;32.95;;;1.60;99.90;;;;;;5011883;28;20026;-51
2022/03/04 06:45:47;;;;;;;60.90;29.70;;;1.50;99.90;;;;;;5012237;28;20488;-52
2022/03/04 06:48:14;;;;;;;64.75;31.35;;;1.50;99.90;;;;;;5012343;28;20474;-55
2022/03/04 06:50:40;;;;;;;60.72;29.73;;;1.40;99.90;;;;;;5012075;28;20057;-50
2022/03/04 06:53:05;;;;;;;66.88;31.33;;;1.50;99.90;;;;;;5011602;28;20493;-50
2022/03/04 06:55:32;;;;;;;62.97;31.08;;;1.40;99.90;;;;;;5010857;28;20137;-52
2022/03/04 06:57:58;;;;;;;54.45;29.58;;;1.40;99.90;;;;;;5012488;28;20389;-52
2022/03/04 07:00:25;;;;;;;62.75;31.33;;;1.50;99.90;;;;;;5027549;28;20030;-51
2022/03/04 07:02:51;;;;;;;58.15;27.95;;;1.60;99.90;;;;;;5031584;28;20033;-53
2022/03/04 07:05:16;;;;;;;61.55;29.38;;;1.80;99.90;;;;;;5031800;28;20703;-54
2022/03/04 07:07:42;;;;;;;67.70;30.73;;;1.80;99.90;;;;;;5031801;28;20029;-51
2022/03/04 07:10:09;;;;;;;58.70;28.88;;;1.80;99.90;;;;;;5031887;28;20030;-49
2022/03/04 07:12:36;;;;;;;59.00;29.08;;;1.80;99.90;;;;;;5031376;28;20080;-52
2022/03/04 07:15:02;;;;;;;58.45;29.85;;;1.80;99.90;;;;;;5034433;28;20080;-49
2022/03/04 07:17:28;;;;;;;57.60;29.10;;;1.80;99.90;;;;;;5035566;28;20061;-49
2022/03/04 07:19:53;;;;;;;67.47;30.13;;;1.80;99.90;;;;;;5017870;28;20060;-55
2022/03/04 07:22:19;;;;;;;56.20;27.88;;;1.80;99.90;;;;;;5017581;28;20041;-52
2022/03/04 07:24:44;;;;;;;59.67;28.40;;;1.80;99.90;;;;;;5035198;28;20470;-53
2022/03/04 07:27:10;;;;;;;60.50;28.13;;;1.80;99.90;;;;;;5035433;28;20501;-53
2022/03/04 07:29:36;;;;;;;57.97;30.08;;;1.90;99.90;;;;;;5035449;28;20045;-51
2022/03/04 07:32:01;;;;;;;63.30;30.88;;;2.00;99.90;;;;;;5035094;28;20033;-53
2022/03/04 07:34:27;;;;;;;69.43;31.50;;;2.10;99.90;;;;;;5035098;28;20529;-51
2022/03/04 07:36:53;;;;;;;73.85;30.63;;;2.00;99.90;;;;;;5035001;28;20042;-54
2022/03/04 07:39:19;;;;;;;67.45;32.13;;;1.70;99.90;;;;;;5034967;28;20033;-51
2022/03/04 07:41:47;;;;;;;65.15;30.58;;;1.80;99.90;;;;;;5025276;28;20478;-50
2022/03/04 07:44:12;;;;;;;58.60;27.98;;;1.90;99.90;;;;;;5014767;28;20030;-54
2022/03/04 07:46:38;;;;;;;64.57;30.77;;;2.00;99.90;;;;;;5015434;28;20117;-56
2022/03/04 07:49:04;;;;;;;61.83;30.13;;;2.20;99.90;;;;;;5014649;28;20037;-55
2022/03/04 07:51:29;;;;;;;63.53;31.45;;;2.20;99.90;;;;;;5013353;28;20042;-50
2022/03/04 07:53:55;;;;;;;69.68;31.65;;;2.30;99.90;;;;;;5013970;28;20033;-52
2022/03/04 07:56:21;;;;;;;73.60;32.58;;;2.30;99.90;;;;;;4997267;28;20125;-51
2022/03/04 07:58:46;;;;;;;66.45;30.25;;;2.30;99.90;;;;;;5016576;28;20036;-54
2022/03/04 08:01:12;;;;;;;66.75;30.25;;;2.40;99.90;;;;;;4995843;28;20078;-54
2022/03/04 08:03:38;;;;;;;68.20;30.73;;;2.50;99.90;;;;;;5008669;28;20033;-55
2022/03/04 08:06:03;;;;;;;58.63;30.02;;;2.40;99.90;;;;;;5014750;28;20065;-55
2022/03/04 08:08:29;;;;;;;60.05;30.23;;;2.50;99.90;;;;;;5014992;28;20034;-56
2022/03/04 08:10:55;;;;;;;61.20;30.38;;;2.60;99.90;;;;;;5014445;28;20068;-55
2022/03/04 08:13:21;;;;;;;62.58;29.15;;;2.50;99.90;;;;;;5014976;28;20084;-56
2022/03/04 08:15:47;;;;;;;55.75;27.92;;;2.50;99.90;;;;;;5014008;28;20038;-54
2022/03/04 08:18:12;;;;;;;54.40;27.20;;;2.50;99.90;;;;;;5012448;28;20022;-54
2022/03/04 08:20:38;;;;;;;55.13;27.52;;;2.40;99.90;;;;;;5013603;28;20057;-57
2022/03/04 08:23:04;;;;;;;54.83;26.25;;;2.50;99.90;;;;;;5016137;28;20060;-53
2022/03/04 08:25:30;;;;;;;50.70;25.38;;;2.50;99.90;;;;;;4999339;28;20424;-56
2022/03/04 08:27:56;;;;;;;50.90;27.70;;;2.50;99.90;;;;;;4997912;28;20053;-54
2022/03/04 08:30:23;;;;;;;50.22;26.05;;;2.60;99.90;;;;;;5013839;28;20037;-57
2022/03/04 08:32:49;;;;;;;45.42;23.35;;;2.50;99.90;;;;;;5018933;28;20030;-56
2022/03/04 08:35:14;;;;;;;46.78;24.70;;;2.60;99.90;;;;;;5014048;28;20037;-54
2022/03/04 08:37:40;;;;;;;49.47;26.30;;;2.70;99.90;;;;;;4992387;28;20026;-53
2022/03/04 08:40:08;;;;;;;42.47;22.92;;;2.80;99.90;;;;;;5013739;28;20076;-54
2022/03/04 08:42:35;;;;;;;42.05;23.15;;;2.90;99.90;;;;;;5009730;28;20105;-57
2022/03/04 08:45:01;;;;;;;43.78;23.15;;;2.90;99.90;;;;;;5011390;28;20060;-56
2022/03/04 08:47:27;;;;;;;43.65;23.15;;;2.90;99.90;;;;;;5012268;28;20113;-57
2022/03/04 08:49:53;;;;;;;37.33;20.80;;;3.00;99.90;;;;;;5011456;28;20044;-56
2022/03/04 08:52:18;;;;;;;38.60;22.25;;;3.00;99.90;;;;;;5011780;28;20034;-56
2022/03/04 08:54:44;;;;;;;33.92;19.85;;;3.00;99.90;;;;;;5012798;28;20490;-54
2022/03/04 08:57:10;;;;;;;37.40;19.13;;;3.10;99.90;;;;;;5012996;28;20098;-57
2022/03/04 08:59:35;;;;;;;35.92;19.52;;;3.00;99.90;;;;;;5022618;28;20052;-56
2022/03/04 09:02:01;;;;;;;35.17;18.98;;;2.90;99.90;;;;;;4979399;28;20098;-55
2022/03/04 09:04:27;;;;;;;34.05;19.17;;;2.90;99.90;;;;;;5013641;28;20062;-57
2022/03/04 09:06:52;;;;;;;34.40;19.27;;;3.00;99.90;;;;;;5013977;28;20037;-57
2022/03/04 09:09:18;;;;;;;31.80;19.30;;;3.10;99.90;;;;;;5013098;28;20383;-56
2022/03/04 09:11:44;;;;;;;32.83;19.17;;;3.00;99.90;;;;;;4996432;28;20387;-54
2022/03/04 09:14:10;;;;;;;32.53;18.80;;;3.00;99.90;;;;;;5011749;28;20034;-56
2022/03/04 09:16:36;;;;;;;29.48;17.75;;;3.10;99.90;;;;;;5014192;28;20030;-55
2022/03/04 09:19:02;;;;;;;34.60;17.92;;;3.10;99.90;;;;;;5011716;28;20049;-55
2022/03/04 09:21:28;;;;;;;29.90;17.40;;;3.30;99.90;;;;;;5013376;28;20064;-53
2022/03/04 09:23:54;;;;;;;23.73;14.00;;;3.40;99.90;;;;;;5012170;28;20207;-54
2022/03/04 09:26:20;;;;;;;22.50;12.07;;;3.20;99.90;;;;;;5013099;28;20033;-56
2022/03/04 09:28:47;;;;;;;17.73;11.55;;;3.30;99.90;;;;;;4995636;28;20041;-51
2022/03/04 09:31:13;;;;;;;23.20;11.65;;;3.40;99.90;;;;;;5011488;28;20037;-53
2022/03/04 09:33:39;;;;;;;15.52;10.68;;;3.50;99.90;;;;;;5012926;28;20044;-55
2022/03/04 09:36:06;;;;;;;16.50;9.65;;;3.30;99.90;;;;;;5009440;28;20022;-50
2022/03/04 09:38:31;;;;;;;17.67;9.27;;;3.20;99.90;;;;;;5011889;28;20045;-54
2022/03/04 09:40:58;;;;;;;22.23;10.02;;;3.20;99.90;;;;;;5011647;28;20034;-52
2022/03/04 09:43:24;;;;;;;16.30;10.10;;;3.00;99.90;;;;;;5012435;28;20033;-52
2022/03/04 09:45:50;;;;;;;15.48;9.48;;;3.00;99.90;;;;;;5012929;28;20029;-54
2022/03/04 09:48:17;;;;;;;20.13;11.13;;;3.10;99.90;;;;;;5012053;28;20486;-53
2022/03/04 09:50:47;;;;;;;16.38;10.23;;;3.00;99.90;;;;;;5012964;28;20065;-56
2022/03/04 09:53:14;;;;;;;20.45;11.00;;;3.00;99.90;;;;;;5012382;28;20041;-54
2022/03/04 09:55:41;;;;;;;18.90;10.73;;;2.90;99.90;;;;;;5012840;28;20109;-56
2022/03/04 09:58:16;;;;;;;16.30;10.98;;;2.80;99.90;;;;;;5011607;28;20034;-55
2022/03/04 10:00:43;;;;;;;15.93;10.45;;;2.80;99.90;;;;;;5012397;28;20041;-52
2022/03/04 10:03:30;;;;;;;18.42;10.63;;;2.80;99.90;;;;;;5011978;28;20040;-56
2022/03/04 10:05:58;;;;;;;16.50;10.20;;;2.80;99.90;;;;;;5013101;28;20045;-55
2022/03/04 10:08:24;;;;;;;20.48;10.70;;;2.90;99.90;;;;;;5011579;28;20343;-58
2022/03/04 10:10:58;;;;;;;26.30;11.70;;;2.90;99.90;;;;;;5012165;28;20048;-52
2022/03/04 10:13:47;;;;;;;18.63;11.52;;;2.90;99.90;;;;;;5026302;28;20033;-54
2022/03/04 10:16:25;;;;;;;20.23;11.07;;;2.90;99.90;;;;;;4993411;28;20054;-54
2022/03/04 10:19:17;;;;;;;20.42;11.98;;;2.90;99.90;;;;;;4995446;28;20046;-56
2022/03/04 10:21:58;;;;;;;24.65;11.68;;;3.00;99.90;;;;;;5011367;28;20402;-56
2022/03/04 10:24:38;;;;;;;24.30;12.25;;;3.10;99.90;;;;;;5011938;28;20044;-57
2022/03/04 10:27:06;;;;;;;26.27;12.23;;;3.20;99.90;;;;;;5010754;28;20052;-57
2022/03/04 10:29:51;;;;;;;24.17;13.90;;;3.30;99.90;;;;;;5008934;28;20097;-53
2022/03/04 10:32:23;;;;;;;22.00;13.32;;;3.40;99.90;;;;;;5006092;28;20041;-54
2022/03/04 10:35:00;;;;;;;30.98;14.85;;;3.50;99.90;;;;;;5013174;28;20045;-54
2022/03/04 10:37:54;;;;;;;19.98;13.45;;;3.70;99.90;;;;;;5009313;28;20036;-57
2022/03/04 10:40:22;;;;;;;55.15;19.48;;;3.70;99.90;;;;;;4996152;28;20609;-57
2022/03/04 10:42:50;;;;;;;32.22;15.73;;;3.50;99.90;;;;;;5011762;28;20038;-55
2022/03/04 10:45:26;;;;;;;26.23;14.90;;;3.50;99.90;;;;;;4992027;28;20060;-56
2022/03/04 10:47:54;;;;;;;28.70;15.52;;;3.60;99.90;;;;;;5030554;28;20183;-55
2022/03/04 10:50:42;;;;;;;23.48;15.13;;;3.50;99.90;;;;;;5013433;28;20037;-59
2022/03/04 10:53:13;;;;;;;24.67;15.43;;;3.50;99.90;;;;;;5024105;28;20037;-57
2022/03/04 10:55:46;;;;;;;25.90;15.77;;;3.30;99.90;;;;;;4998462;28;20038;-54
2022/03/04 10:58:29;;;;;;;35.78;17.38;;;3.20;99.90;;;;;;5015868;28;20049;-54
2022/03/04 11:01:00;;;;;;;314.80;151.20;;;3.30;99.90;;;;;;5016362;28;20062;-54
2022/03/04 11:03:30;;;;;;;114.45;56.83;;;3.90;99.90;;;;;;5014686;28;20029;-56
2022/03/04 11:06:01;;;;;;;88.10;38.28;;;4.60;99.90;;;;;;5016134;28;20025;-56
2022/03/04 11:08:27;;;;;;;60.75;31.60;;;5.20;99.90;;;;;;5015329;28;20038;-56
2022/03/04 11:10:54;;;;;;;32.55;18.40;;;5.60;99.90;;;;;;5013719;28;20117;-56
2022/03/04 11:13:20;;;;;;;28.50;15.90;;;5.90;99.90;;;;;;5015141;28;20038;-57
2022/03/04 11:15:47;;;;;;;24.58;15.25;;;5.50;98.50;;;;;;5014200;28;20038;-56
2022/03/04 11:18:16;;;;;;;23.83;14.80;;;4.50;99.90;;;;;;5014989;28;20030;-57
2022/03/04 11:20:44;;;;;;;23.25;13.75;;;4.30;99.90;;;;;;5015252;28;20490;-58
2022/03/04 11:23:15;;;;;;;20.15;13.65;;;3.90;99.90;;;;;;5014495;28;20107;-57
2022/03/04 11:25:43;;;;;;;19.60;13.63;;;3.80;99.90;;;;;;5014832;28;20509;-56
2022/03/04 11:28:13;;;;;;;23.38;13.95;;;3.50;99.90;;;;;;5002193;28;20038;-57
2022/03/04 11:30:51;;;;;;;51.00;16.98;;;3.50;99.90;;;;;;5036176;28;20381;-57
2022/03/04 11:33:21;;;;;;;23.77;14.57;;;3.60;99.90;;;;;;5025243;28;20442;-55
2022/03/04 11:36:03;;;;;;;49.85;17.85;;;3.70;99.90;;;;;;5011635;28;20092;-57
2022/03/04 11:38:44;;;;;;;28.60;15.95;;;3.70;99.90;;;;;;5014398;28;20076;-59
2022/03/04 11:41:30;;;;;;;30.13;15.02;;;3.70;99.90;;;;;;5001059;28;20509;-57
2022/03/04 11:44:14;;;;;;;26.08;14.88;;;3.60;99.90;;;;;;5015091;28;20052;-57
2022/03/04 11:47:02;;;;;;;30.80;15.68;;;3.40;99.90;;;;;;5013912;28;20117;-58
2022/03/04 11:49:48;;;;;;;26.60;15.93;;;3.40;99.90;;;;;;5015470;28;20600;-56
2022/03/04 11:52:21;;;;;;;21.02;14.32;;;3.50;99.90;;;;;;5014527;28;20034;-54
2022/03/04 11:54:49;;;;;;;25.15;14.35;;;3.40;99.90;;;;;;5015450;28;20025;-58
2022/03/04 11:57:19;;;;;;;24.45;14.25;;;3.50;99.90;;;;;;5014937;28;20030;-58
2022/03/04 11:59:58;;;;;;;26.13;15.82;;;3.70;99.90;;;;;;5014285;28;20026;-56
2022/03/04 12:02:43;;;;;;;24.83;14.95;;;3.80;99.90;;;;;;5014000;28;20033;-58
2022/03/04 12:05:25;;;;;;;19.98;13.63;;;3.90;99.90;;;;;;5015252;28;20037;-57
2022/03/04 12:07:56;;;;;;;24.70;14.13;;;4.00;99.90;;;;;;5014672;28;20034;-57
2022/03/04 12:10:35;;;;;;;30.20;14.75;;;4.00;99.90;;;;;;5014425;28;20030;-57
2022/03/04 12:13:26;;;;;;;25.67;13.68;;;4.00;99.90;;;;;;5013369;28;20030;-56
2022/03/04 12:16:03;;;;;;;18.33;12.30;;;4.10;99.90;;;;;;5009600;28;20454;-56
2022/03/04 12:18:31;;;;;;;20.90;12.57;;;4.20;99.90;;;;;;5005617;28;20033;-56
2022/03/04 12:21:03;;;;;;;22.17;14.27;;;4.50;99.80;;;;;;5001179;28;20096;-57
2022/03/04 12:23:36;;;;;;;25.58;15.63;;;4.30;99.90;;;;;;5020642;28;20088;-54
2022/03/04 12:26:01;;;;;;;61.45;24.92;;;4.10;99.90;;;;;;5010824;28;20034;-55
2022/03/04 12:28:34;;;;;;;29.52;15.63;;;4.20;99.90;;;;;;5013890;28;20026;-57
2022/03/04 12:31:03;;;;;;;20.08;13.68;;;4.40;99.90;;;;;;5009433;28;20030;-58
2022/03/04 12:33:30;;;;;;;21.55;13.65;;;4.50;99.80;;;;;;5009174;28;20066;-56
2022/03/04 12:35:57;;;;;;;21.33;14.20;;;4.50;99.20;;;;;;5011407;28;20038;-55
2022/03/04 12:38:27;;;;;;;23.30;13.80;;;4.50;99.50;;;;;;5012510;28;20432;-54